createdAt,value
2018-03-27T00:00:18.376Z,4.97
2018-03-27T00:02:49.380Z,4.50
2018-03-27T00:05:19.972Z,4.93
2018-03-27T00:07:50.984Z,4.63
2018-03-27T00:10:21.812Z,4.83
2018-03-27T00:12:53.016Z,5.30
2018-03-27T00:15:24.219Z,4.57
2018-03-27T00:17:55.177Z,5.03
2018-03-27T00:20:25.893Z,4.90
2018-03-27T00:22:56.157Z,4.53
2018-03-27T00:25:26.902Z,5.40
2018-03-27T00:28:08.387Z,4.73
2018-03-27T00:30:49.824Z,5.20
2018-03-27T00:33:31.709Z,5.53
2018-03-27T00:36:13.284Z,5.20
2018-03-27T00:38:55.081Z,5.67
2018-03-27T00:41:34.335Z,4.53
2018-03-27T00:44:05.910Z,5.87
2018-03-27T00:46:36.821Z,5.60
2018-03-27T00:49:07.944Z,4.97
2018-03-27T00:51:39.268Z,4.97
2018-03-27T00:54:10.791Z,5.17
2018-03-27T00:56:42.833Z,4.87
2018-03-27T00:59:13.983Z,4.77
2018-03-27T01:01:45.550Z,4.90
2018-03-27T01:04:16.368Z,4.67
2018-03-27T01:06:46.905Z,5.17
2018-03-27T01:09:18.227Z,5.27
2018-03-27T01:11:49.195Z,5.50
2018-03-27T01:14:20.151Z,5.20
2018-03-27T01:16:51.165Z,5.37
2018-03-27T01:19:22.218Z,5.83
2018-03-27T01:21:53.263Z,5.10
2018-03-27T01:24:24.827Z,5.33
2018-03-27T01:26:55.659Z,5.33
2018-03-27T01:29:26.850Z,5.47
2018-03-27T01:31:57.962Z,5.73
2018-03-27T01:34:28.869Z,5.10
2018-03-27T01:36:59.864Z,4.67
2018-03-27T01:39:31.073Z,5.70
2018-03-27T01:42:02.258Z,5.23
2018-03-27T01:44:34.454Z,5.13
2018-03-27T01:47:05.929Z,5.50
2018-03-27T01:49:37.070Z,5.43
2018-03-27T01:52:08.186Z,5.37
2018-03-27T01:54:39.513Z,5.67
2018-03-27T01:57:10.446Z,5.50
2018-03-27T01:59:41.223Z,5.80
2018-03-27T02:02:12.988Z,5.80
2018-03-27T02:04:44.564Z,4.93
2018-03-27T02:07:15.941Z,5.77
2018-03-27T02:09:47.304Z,5.23
2018-03-27T02:12:23.218Z,5.70
2018-03-27T02:14:59.367Z,5.83
2018-03-27T02:17:35.318Z,5.80
2018-03-27T02:20:11.489Z,6.00
2018-03-27T02:22:43.250Z,6.47
2018-03-27T02:25:14.880Z,6.80
2018-03-27T02:27:46.091Z,6.23
2018-03-27T02:30:16.871Z,7.23
2018-03-27T02:32:48.046Z,7.93
2018-03-27T02:35:20.460Z,6.57
2018-03-27T02:37:55.763Z,7.10
2018-03-27T02:40:26.712Z,6.50
2018-03-27T02:42:57.924Z,6.47
2018-03-27T02:45:28.892Z,6.20
2018-03-27T02:47:59.985Z,7.13
2018-03-27T02:50:30.724Z,5.47
2018-03-27T02:53:01.778Z,5.63
2018-03-27T02:55:33.886Z,6.53
2018-03-27T02:58:05.027Z,5.90
2018-03-27T03:00:37.156Z,6.07
2018-03-27T03:03:08.701Z,6.00
2018-03-27T03:05:40.092Z,6.07
2018-03-27T03:08:11.842Z,6.27
2018-03-27T03:10:43.477Z,6.00
2018-03-27T03:13:14.532Z,5.60
2018-03-27T03:15:46.173Z,6.30
2018-03-27T03:18:17.968Z,5.93
2018-03-27T03:20:49.585Z,5.93
2018-03-27T03:23:20.600Z,6.03
2018-03-27T03:25:51.721Z,6.30
2018-03-27T03:28:23.131Z,5.87
2018-03-27T03:30:53.997Z,6.00
2018-03-27T03:33:24.978Z,5.17
2018-03-27T03:35:57.060Z,5.17
2018-03-27T03:38:28.501Z,5.17
2018-03-27T03:40:59.727Z,5.73
2018-03-27T03:43:30.698Z,6.10
2018-03-27T03:46:02.525Z,6.17
2018-03-27T03:48:33.791Z,5.70
2018-03-27T03:51:05.191Z,6.20
2018-03-27T03:53:37.696Z,6.90
2018-03-27T03:56:09.670Z,5.27
2018-03-27T03:58:40.762Z,6.30
2018-03-27T04:01:11.679Z,6.60
2018-03-27T04:03:43.115Z,7.03
2018-03-27T04:06:13.964Z,6.73
2018-03-27T04:08:44.934Z,5.87
2018-03-27T04:11:16.699Z,5.63
2018-03-27T04:13:49.659Z,6.27
2018-03-27T04:16:20.716Z,6.27
2018-03-27T04:18:52.001Z,6.33
2018-03-27T04:21:23.466Z,5.83
2018-03-27T04:23:54.799Z,6.03
2018-03-27T04:26:27.704Z,5.53
2018-03-27T04:28:59.550Z,5.93
2018-03-27T04:31:30.783Z,5.53
2018-03-27T04:34:02.121Z,5.37
2018-03-27T04:36:33.924Z,5.30
2018-03-27T04:39:05.960Z,5.97
2018-03-27T04:41:38.155Z,5.43
2018-03-27T04:44:09.527Z,6.00
2018-03-27T04:46:40.475Z,6.00
2018-03-27T04:49:12.489Z,5.90
2018-03-27T04:51:43.981Z,6.13
2018-03-27T04:54:15.391Z,6.33
2018-03-27T04:56:46.679Z,5.97
2018-03-27T04:59:17.541Z,6.00
2018-03-27T05:01:48.851Z,5.93
2018-03-27T05:04:19.556Z,6.37
2018-03-27T05:06:50.955Z,6.23
2018-03-27T05:09:22.751Z,6.17
2018-03-27T05:11:54.190Z,6.40
2018-03-27T05:14:25.486Z,6.33
2018-03-27T05:16:56.828Z,6.00
2018-03-27T05:19:28.133Z,6.40
2018-03-27T05:21:59.891Z,6.30
2018-03-27T05:24:30.749Z,5.70
2018-03-27T05:27:01.439Z,6.30
2018-03-27T05:29:32.553Z,6.10
2018-03-27T05:32:04.271Z,6.40
2018-03-27T05:34:35.267Z,5.50
2018-03-27T05:37:06.887Z,6.13
2018-03-27T05:41:06.856Z,6.10
2018-03-27T05:43:38.086Z,5.97
2018-03-27T05:46:09.918Z,6.13
2018-03-27T05:48:41.015Z,6.47
2018-03-27T05:51:11.613Z,6.40
2018-03-27T05:53:42.384Z,6.43
2018-03-27T05:56:13.033Z,7.00
2018-03-27T05:58:43.990Z,6.53
2018-03-27T06:01:15.147Z,6.13
2018-03-27T06:03:46.903Z,6.07
2018-03-27T06:06:17.378Z,6.57
2018-03-27T06:08:48.502Z,6.37
2018-03-27T06:11:19.781Z,6.23
2018-03-27T06:13:50.695Z,6.60
2018-03-27T06:19:03.678Z,5.90
2018-03-27T06:21:34.472Z,5.83
2018-03-27T06:24:05.591Z,6.77
2018-03-27T06:26:37.278Z,9.87
2018-03-27T06:29:08.633Z,6.63
2018-03-27T06:31:39.631Z,6.77
2018-03-27T06:34:10.075Z,5.93
2018-03-27T06:36:40.896Z,5.47
2018-03-27T06:39:11.979Z,5.13
2018-03-27T06:41:42.415Z,5.77
2018-03-27T06:44:16.064Z,5.57
2018-03-27T06:46:46.964Z,7.70
2018-03-27T06:49:17.677Z,6.70
2018-03-27T06:51:48.361Z,6.33
2018-03-27T06:54:19.673Z,6.33
2018-03-27T06:56:50.210Z,6.27
2018-03-27T06:59:20.848Z,6.37
2018-03-27T07:01:51.647Z,5.50
2018-03-27T07:04:22.241Z,5.70
2018-03-27T07:06:54.330Z,5.27
2018-03-27T07:09:24.465Z,5.80
2018-03-27T07:11:54.340Z,6.07
2018-03-27T07:14:26.367Z,5.90
2018-03-27T07:16:56.699Z,5.97
2018-03-27T07:19:27.427Z,6.10
2018-03-27T07:21:58.690Z,6.40
2018-03-27T07:24:29.277Z,6.53
2018-03-27T07:26:59.853Z,6.50
2018-03-27T07:29:38.762Z,6.63
2018-03-27T07:32:17.174Z,6.30
2018-03-27T07:34:48.458Z,6.43
2018-03-27T07:37:19.173Z,7.30
2018-03-27T07:39:50.214Z,7.57
2018-03-27T07:42:21.271Z,6.87
2018-03-27T07:44:53.233Z,7.27
2018-03-27T07:47:23.969Z,6.37
2018-03-27T07:49:54.921Z,6.80
2018-03-27T07:52:25.438Z,6.80
2018-03-27T07:54:56.211Z,6.40
2018-03-27T07:57:26.845Z,7.03
2018-03-27T08:00:01.449Z,6.77
2018-03-27T08:02:34.505Z,7.17
2018-03-27T08:05:05.336Z,6.77
2018-03-27T08:07:36.299Z,6.57
2018-03-27T08:10:10.087Z,6.70
2018-03-27T08:12:40.027Z,8.47
2018-03-27T08:15:10.685Z,8.47
2018-03-27T08:17:41.702Z,6.50
2018-03-27T08:20:12.184Z,7.13
2018-03-27T08:22:42.407Z,7.00
2018-03-27T08:25:13.000Z,7.80
2018-03-27T08:27:42.780Z,7.37
2018-03-27T08:30:13.407Z,6.77
2018-03-27T08:32:43.305Z,7.23
2018-03-27T08:38:13.269Z,8.57
2018-03-27T08:43:28.774Z,8.80
2018-03-27T08:46:00.045Z,8.57
2018-03-27T08:48:30.297Z,8.43
2018-03-27T08:51:00.426Z,8.00
2018-03-27T08:53:32.255Z,8.07
2018-03-27T08:56:02.873Z,8.80
2018-03-27T08:58:33.444Z,7.70
2018-03-27T09:01:07.308Z,8.20
2018-03-27T09:03:38.338Z,7.87
2018-03-27T09:06:09.553Z,7.03
2018-03-27T09:08:40.223Z,7.30
2018-03-27T09:11:11.182Z,7.43
2018-03-27T09:13:42.090Z,6.67
2018-03-27T09:16:12.584Z,7.00
2018-03-27T09:18:43.419Z,7.40
2018-03-27T09:21:14.084Z,7.00
2018-03-27T09:23:45.023Z,7.00
2018-03-27T09:26:46.434Z,7.83
2018-03-27T09:29:17.703Z,7.73
2018-03-27T09:31:48.953Z,8.30
2018-03-27T09:34:20.787Z,8.00
2018-03-27T09:36:51.566Z,8.30
2018-03-27T09:39:22.674Z,7.60
2018-03-27T09:41:55.434Z,7.97
2018-03-27T09:44:26.731Z,9.00
2018-03-27T09:46:57.036Z,8.13
2018-03-27T09:49:27.664Z,9.10
2018-03-27T09:51:58.031Z,8.77
2018-03-27T09:54:28.454Z,8.90
2018-03-27T09:56:58.780Z,8.70
2018-03-27T09:59:46.917Z,8.90
2018-03-27T10:02:23.020Z,9.17
2018-03-27T10:04:53.789Z,9.53
2018-03-27T10:07:24.122Z,9.83
2018-03-27T10:09:54.866Z,9.27
2018-03-27T10:12:32.590Z,9.80
2018-03-27T10:15:03.562Z,10.17
2018-03-27T10:17:33.832Z,10.57
2018-03-27T10:20:04.215Z,10.53
2018-03-27T10:22:34.741Z,10.40
2018-03-27T10:25:05.583Z,10.67
2018-03-27T10:27:36.065Z,10.30
2018-03-27T10:30:06.788Z,11.67
2018-03-27T10:32:37.238Z,11.37
2018-03-27T10:35:07.811Z,11.87
2018-03-27T10:37:46.876Z,12.27
2018-03-27T10:40:19.405Z,12.37
2018-03-27T10:42:51.148Z,12.87
2018-03-27T10:45:25.716Z,13.03
2018-03-27T10:48:00.307Z,12.53
2018-03-27T10:50:30.912Z,12.77
2018-03-27T10:53:02.382Z,12.90
2018-03-27T10:55:32.775Z,13.10
2018-03-27T10:58:03.307Z,12.60
2018-03-27T11:00:33.909Z,12.80
2018-03-27T11:03:04.705Z,13.90
2018-03-27T11:05:35.085Z,13.13
2018-03-27T11:08:05.404Z,12.67
2018-03-27T11:10:38.356Z,22.47
2018-03-27T11:13:08.756Z,16.80
2018-03-27T11:15:47.006Z,13.33
2018-03-27T11:18:23.192Z,13.63
2018-03-27T11:20:53.890Z,13.90
2018-03-27T11:23:24.149Z,14.23
2018-03-27T11:25:56.654Z,14.40
2018-03-27T11:28:27.267Z,14.30
2018-03-27T11:30:57.947Z,15.03
2018-03-27T11:33:48.741Z,16.70
2018-03-27T11:36:20.426Z,16.70
2018-03-27T11:38:52.299Z,16.17
2018-03-27T11:41:24.049Z,16.67
2018-03-27T11:43:54.568Z,16.63
2018-03-27T11:46:24.636Z,18.03
2018-03-27T11:48:55.037Z,18.27
2018-03-27T11:51:29.111Z,17.23
2018-03-27T11:53:59.681Z,18.50
2018-03-27T11:56:30.432Z,20.23
2018-03-27T11:59:00.912Z,18.63
2018-03-27T12:01:31.510Z,19.23
2018-03-27T12:04:02.125Z,19.80
2018-03-27T12:06:32.565Z,20.30
2018-03-27T12:09:03.102Z,21.00
2018-03-27T12:11:33.645Z,21.03
2018-03-27T12:14:04.088Z,21.00
2018-03-27T12:16:34.860Z,20.57
2018-03-27T12:19:05.537Z,21.03
2018-03-27T12:21:36.066Z,21.00
2018-03-27T12:24:06.588Z,20.63
2018-03-27T12:26:48.883Z,20.47
2018-03-27T12:29:22.264Z,20.10
2018-03-27T12:31:52.967Z,21.07
2018-03-27T12:34:23.505Z,20.83
2018-03-27T12:36:53.625Z,20.00
2018-03-27T12:39:24.246Z,20.13
2018-03-27T12:41:54.792Z,21.13
2018-03-27T12:44:25.334Z,21.07
2018-03-27T12:46:56.287Z,21.30
2018-03-27T12:49:26.719Z,20.97
2018-03-27T12:51:57.611Z,20.30
2018-03-27T12:54:28.126Z,21.20
2018-03-27T12:57:03.486Z,20.83
2018-03-27T12:59:33.844Z,20.50
2018-03-27T13:02:04.409Z,20.43
2018-03-27T13:04:34.968Z,21.70
2018-03-27T13:07:05.451Z,16.13
2018-03-27T13:09:54.928Z,20.37
2018-03-27T13:18:23.439Z,19.50
2018-03-27T13:20:54.072Z,18.17
2018-03-27T13:23:24.817Z,21.70
2018-03-27T13:25:56.379Z,20.43
2018-03-27T13:28:27.262Z,20.57
2018-03-27T13:30:57.820Z,22.23
2018-03-27T13:33:29.451Z,20.83
2018-03-27T13:36:01.022Z,20.20
2018-03-27T13:38:31.520Z,21.43
2018-03-27T13:41:07.208Z,24.53
2018-03-27T13:43:41.884Z,20.60
2018-03-27T13:46:12.589Z,21.73
2018-03-27T13:48:43.214Z,20.60
2018-03-27T13:51:20.598Z,20.30
2018-03-27T13:53:51.441Z,20.33
2018-03-27T13:56:21.849Z,20.30
2018-03-27T13:58:52.834Z,21.67
2018-03-27T14:01:23.452Z,21.33
2018-03-27T14:03:53.919Z,19.63
2018-03-27T14:06:24.441Z,20.13
2018-03-27T14:08:55.238Z,22.63
2018-03-27T14:11:25.655Z,19.10
2018-03-27T14:13:56.368Z,20.97
2018-03-27T14:16:26.793Z,23.43
2018-03-27T14:18:57.586Z,18.70
2018-03-27T14:21:28.032Z,21.67
2018-03-27T14:24:02.199Z,22.10
2018-03-27T14:26:32.378Z,20.37
2018-03-27T14:29:02.954Z,19.97
2018-03-27T14:31:33.439Z,21.03
2018-03-27T14:34:03.581Z,22.77
2018-03-27T14:36:33.962Z,21.93
2018-03-27T14:39:05.945Z,20.10
2018-03-27T14:44:32.072Z,22.47
2018-03-27T14:47:02.515Z,26.07
2018-03-27T14:49:32.970Z,22.33
2018-03-27T14:52:03.376Z,21.63
2018-03-27T14:54:35.317Z,20.87
2018-03-27T14:57:06.114Z,21.63
2018-03-27T14:59:39.708Z,19.60
2018-03-27T15:02:10.203Z,20.80
2018-03-27T15:04:40.748Z,18.87
2018-03-27T15:07:11.299Z,19.53
2018-03-27T15:09:41.417Z,15.73
2018-03-27T15:12:11.847Z,16.53
2018-03-27T15:14:42.375Z,14.13
2018-03-27T15:17:12.803Z,16.60
2018-03-27T15:19:43.634Z,12.83
2018-03-27T15:22:14.157Z,13.10
2018-03-27T15:24:44.875Z,13.67
2018-03-27T15:27:15.643Z,10.33
2018-03-27T15:29:46.473Z,17.17
2018-03-27T15:32:16.936Z,18.17
2018-03-27T15:34:52.090Z,15.47
2018-03-27T15:37:22.640Z,17.30
2018-03-27T15:39:53.227Z,20.10
2018-03-27T15:42:25.739Z,16.83
2018-03-27T15:44:56.396Z,16.33
2018-03-27T15:47:26.814Z,14.77
2018-03-27T15:49:57.770Z,15.67
2018-03-27T15:52:28.267Z,15.73
2018-03-27T15:54:59.045Z,15.63
2018-03-27T15:57:29.493Z,16.37
2018-03-27T16:00:00.307Z,16.87
2018-03-27T16:02:30.795Z,15.97
2018-03-27T16:05:01.251Z,16.27
2018-03-27T16:07:31.598Z,16.17
2018-03-27T16:10:02.012Z,16.97
2018-03-27T16:12:32.414Z,15.67
2018-03-27T16:15:03.862Z,17.13
2018-03-27T16:17:34.625Z,17.23
2018-03-27T16:20:05.508Z,17.00
2018-03-27T16:22:35.975Z,17.00
2018-03-27T16:25:06.444Z,17.57
2018-03-27T16:27:36.834Z,17.27
2018-03-27T16:30:08.088Z,16.80
2018-03-27T16:32:38.542Z,18.13
2018-03-27T16:35:11.688Z,17.57
2018-03-27T16:37:42.144Z,18.57
2018-03-27T16:40:13.494Z,18.40
2018-03-27T16:42:43.921Z,19.50
2018-03-27T16:45:14.538Z,17.23
2018-03-27T16:47:44.975Z,17.50
2018-03-27T16:50:15.826Z,17.37
2018-03-27T16:52:46.418Z,20.03
2018-03-27T16:55:17.172Z,18.60
2018-03-27T16:57:47.644Z,18.67
2018-03-27T17:00:18.135Z,19.00
2018-03-27T17:02:48.572Z,18.53
2018-03-27T17:05:19.085Z,18.73
2018-03-27T17:07:49.497Z,18.00
2018-03-27T17:10:19.572Z,19.23
2018-03-27T17:12:50.068Z,19.40
2018-03-27T17:15:20.665Z,19.37
2018-03-27T17:17:52.267Z,19.00
2018-03-27T17:20:22.983Z,17.50
2018-03-27T17:22:54.041Z,20.47
2018-03-27T17:25:26.921Z,22.47
2018-03-27T17:27:57.651Z,21.67
2018-03-27T17:30:28.859Z,20.27
2018-03-27T17:33:06.132Z,19.90
2018-03-27T17:35:40.924Z,19.27
2018-03-27T17:38:11.476Z,18.63
2018-03-27T17:40:41.891Z,18.23
2018-03-27T17:43:12.520Z,15.97
2018-03-27T17:45:43.356Z,15.43
2018-03-27T18:03:15.966Z,18.20
2018-03-27T18:05:46.757Z,18.80
2018-03-27T18:08:17.654Z,15.43
2018-03-27T18:10:48.632Z,21.07
2018-03-27T18:16:23.405Z,21.03
2018-03-27T18:24:56.430Z,20.10
2018-03-27T18:27:29.666Z,27.03
2018-03-27T18:30:00.090Z,21.70
2018-03-27T18:32:30.555Z,25.37
2018-03-27T18:35:01.330Z,31.67
2018-03-27T18:37:31.810Z,25.43
2018-03-27T18:40:02.566Z,26.87
2018-03-27T18:42:33.173Z,28.00
2018-03-27T18:45:03.631Z,26.83
2018-03-27T18:47:34.168Z,26.97
2018-03-27T18:50:04.641Z,29.73
2018-03-27T18:52:49.456Z,30.00
2018-03-27T18:55:20.187Z,32.07
2018-03-27T18:57:50.652Z,30.47
2018-03-27T19:00:21.145Z,33.57
2018-03-27T19:02:51.669Z,31.57
2018-03-27T19:05:24.098Z,33.00
2018-03-27T19:07:55.145Z,34.03
2018-03-27T19:10:27.102Z,32.80
2018-03-27T19:12:58.317Z,33.97
2018-03-27T19:15:29.626Z,32.37
2018-03-27T19:18:00.707Z,33.10
2018-03-27T19:20:31.631Z,36.10
2018-03-27T19:23:09.898Z,34.07
2018-03-27T19:26:11.334Z,34.00
2018-03-27T19:28:42.168Z,36.47
2018-03-27T19:31:12.941Z,34.97
2018-03-27T19:33:44.539Z,35.37
2018-03-27T19:36:15.785Z,36.63
2018-03-27T19:38:46.785Z,36.47
2018-03-27T19:41:18.218Z,36.00
2018-03-27T19:43:49.281Z,33.13
2018-03-27T19:46:19.996Z,31.87
2018-03-27T19:48:50.869Z,34.13
2018-03-27T19:51:21.625Z,34.93
2018-03-27T19:53:52.422Z,32.40
2018-03-27T19:56:23.335Z,32.57
2018-03-27T19:58:53.972Z,29.27
2018-03-27T20:01:24.872Z,30.50
2018-03-27T20:03:55.883Z,29.27
2018-03-27T20:06:27.006Z,30.33
2018-03-27T20:08:57.609Z,31.07
2018-03-27T20:11:28.441Z,30.37
2018-03-27T20:13:58.968Z,28.67
2018-03-27T20:16:29.551Z,28.77
2018-03-27T20:19:00.010Z,29.70
2018-03-27T20:21:30.475Z,28.13
2018-03-27T20:24:00.974Z,30.57
2018-03-27T20:26:33.283Z,25.07
2018-03-27T20:29:03.822Z,26.87
2018-03-27T20:46:36.897Z,25.70
2018-03-27T20:52:09.317Z,28.33
2018-03-27T20:54:40.228Z,28.70
2018-03-27T21:03:15.211Z,32.40
2018-03-27T21:05:46.584Z,36.70
2018-03-27T21:08:18.583Z,28.93
2018-03-27T21:10:49.987Z,31.13
2018-03-27T21:13:22.065Z,30.10
2018-03-27T21:15:53.039Z,30.67
2018-03-27T21:18:23.827Z,27.47
2018-03-27T21:20:54.309Z,30.27
2018-03-27T21:23:24.704Z,42.00
2018-03-27T21:25:56.040Z,35.93
2018-03-27T21:28:26.809Z,34.33
2018-03-27T21:30:57.508Z,30.90
2018-03-27T21:33:29.195Z,31.90
2018-03-27T21:35:59.839Z,39.70
2018-03-27T21:38:30.337Z,40.63
2018-03-27T21:41:00.744Z,31.93
2018-03-27T21:43:31.151Z,32.33
2018-03-27T21:46:01.837Z,33.47
2018-03-27T21:48:32.469Z,33.33
2018-03-27T21:51:02.890Z,36.47
2018-03-27T21:53:34.454Z,34.43
2018-03-27T21:56:06.013Z,34.37
2018-03-27T21:58:36.657Z,35.20
2018-03-27T22:01:06.697Z,34.30
2018-03-27T22:03:40.639Z,40.63
2018-03-27T22:06:11.380Z,35.87
2018-03-27T22:08:41.969Z,34.73
2018-03-27T22:11:12.508Z,33.43
2018-03-27T22:13:43.930Z,35.37
2018-03-27T22:16:14.509Z,35.00
2018-03-27T22:18:45.950Z,34.57
2018-03-27T22:21:17.499Z,34.07
2018-03-27T22:23:48.324Z,34.23
2018-03-27T22:26:18.849Z,34.20
2018-03-27T22:28:49.543Z,35.27
2018-03-27T22:31:20.021Z,35.27
2018-03-27T22:33:50.774Z,35.00
2018-03-27T22:36:21.314Z,36.00
2018-03-27T22:38:52.601Z,36.80
2018-03-27T22:41:23.184Z,33.63
2018-03-27T22:43:54.280Z,34.77
2018-03-27T22:46:24.912Z,33.37
2018-03-27T22:48:55.409Z,34.53
2018-03-27T22:51:25.532Z,34.83
2018-03-27T22:53:56.232Z,33.80
2018-03-27T22:56:26.858Z,31.80
2018-03-27T22:58:57.379Z,31.10
2018-03-27T23:01:27.876Z,31.57
2018-03-27T23:03:58.839Z,30.83
2018-03-27T23:06:30.126Z,29.97
2018-03-27T23:09:01.135Z,31.23
2018-03-27T23:11:31.774Z,30.37
2018-03-27T23:14:01.929Z,31.77
2018-03-27T23:16:32.459Z,31.87
2018-03-27T23:19:03.178Z,31.13
2018-03-27T23:21:33.691Z,31.07
2018-03-27T23:24:04.574Z,29.00
2018-03-27T23:26:35.178Z,30.97
2018-03-27T23:29:06.420Z,31.00
2018-03-27T23:31:37.014Z,29.70
2018-03-27T23:34:07.604Z,30.63
2018-03-27T23:36:38.654Z,30.90
2018-03-27T23:39:09.648Z,30.13
2018-03-27T23:41:40.490Z,30.70
2018-03-27T23:44:11.255Z,30.33
2018-03-27T23:46:41.939Z,30.20
2018-03-27T23:49:14.146Z,31.90
2018-03-27T23:51:45.712Z,31.67
2018-03-27T23:54:16.414Z,30.93
2018-03-27T23:56:47.330Z,31.03
2018-03-27T23:59:18.145Z,30.50
